• Join FlightAware (Why Join?)
  • Login
  • US Flag 
10:04PM EDT


 

Airport Tracker/Info


-or-


 

Live Flight TrackerFlight Track Log ✈ FLG3861 ✈ 24-Sep-2013 ✈ KDTW - KBGM

Flight Track Log - Related Links

Times and Time Zones

All times are in EDT time to prevent confusion due to time zone crossing. See the FLG3861 flight status page for this flight to view local times or setup timezone preferences in your user account.

Time Position Orientation Groundspeed Altitude Reporting Facility
EDT Latitude Longitude Course Direction KTS MPH feet Rate Location/Type
09:45PM 42.1925 -83.3539 180° South 152 175 1,300  Level Cleveland Center
09:46PM 42.1358 -83.3544 180° South 211 243 3,300 1,680 Climbing Cleveland Center
09:46PM 42.1372 -83.3531 37° Northeast 209 241 3,300 1,620 Level Cleveland Center
09:46PM 42.0878 -83.3506 178° South 245 282 4,600 1,560 Climbing Cleveland Center
09:47PM 42.0767 -83.3372 138° Southeast 241 277 4,900 1,860 Climbing Cleveland Center
09:48PM 42.0833 -83.2486 84° East 273 314 6,900 1,920 Climbing Cleveland Center
09:48PM 42.0842 -83.2428 79° East 267 307 6,900 1,800 Level Cleveland Center
09:49PM 42.1103 -83.1678 65° Northeast 286 329 8,400 1,920 Climbing Cleveland Center
09:49PM 42.1161 -83.1494 67° East 282 325 8,900 1,920 Climbing Cleveland Center
09:50PM 42.1503 -83.0531 64° Northeast 288 331 10,900 1,740 Climbing Cleveland Center
09:51PM 42.1903 -82.9436 64° Northeast 321 369 12,500 1,320 Climbing Cleveland Center
09:52PM 42.2325 -82.8264 64° Northeast 347 399 13,700 1,380 Climbing Cleveland Center
09:53PM 42.2853 -82.6814 64° Northeast 360 414 15,400 1,380 Climbing Cleveland Center
09:54PM 42.3294 -82.5575 64° Northeast 365 420 16,600 1,140 Climbing Cleveland Center
09:55PM 42.3642 -82.4264 70° East 383 441 17,800 1,140 Climbing Cleveland Center
09:56PM 42.3606 -82.2850 92° East 378 435 19,000 1,020 Climbing Cleveland Center
09:57PM 42.3544 -82.1400 93° East 386 444 19,900 660 Climbing Cleveland Center
09:58PM 42.3478 -81.9956 94° East 392 451 20,400 480 Climbing Cleveland Center
09:59PM 42.3414 -81.8408 93° East 403 464 21,000 660 Climbing Cleveland Center
10:00PM 42.3333 -81.6578 93° East 413 475 21,800 660 Climbing Cleveland Center
10:01PM 42.3256 -81.5000 94° East 415 478 22,400 540 Climbing Cleveland Center
10:02PM 42.3181 -81.3433 94° East 414 476 23,000 540 Climbing Cleveland Center
10:03PM 42.3106 -81.1839 94° East 418 481 23,600 540 Climbing Cleveland Center
10:04PM 42.3022 -81.0250 94° East 420 483 24,200 540 Climbing Cleveland Center
10:05PM 42.2942 -80.8653 94° East 422 486 24,800 540 Climbing Cleveland Center
10:06PM 42.2850 -80.7067 94° East 421 484 25,400 540 Climbing Cleveland Center
10:07PM 42.2778 -80.5506 94° East 415 478 26,000 600 Climbing Cleveland Center
10:08PM 42.2683 -80.3928 95° East 417 480 26,700 480 Climbing Cleveland Center
10:09PM 42.2694 -80.2328 89° East 422 486 27,000 120 Climbing Cleveland Center
10:10PM 42.2697 -80.0700 90° East 429 494 27,000  Level Cleveland Center
10:11PM 42.2692 -79.9161 90° East 437 503 27,000  Level Cleveland Center
10:12PM 42.2694 -79.7153 90° East 447 514 27,000  Level Cleveland Center
10:13PM 42.2694 -79.5467 90° East 452 520 27,000  Level Cleveland Center
10:14PM 42.2686 -79.3767 90° East 454 522 27,000  Level Cleveland Center
10:15PM 42.2678 -79.2064 90° East 457 526 27,000  Level Cleveland Center
10:16PM 42.2661 -79.0344 91° East 459 528 27,000 -120 Level Cleveland Center
10:17PM 42.2653 -78.8478 90° East 461 531 26,800 -900 Descending Cleveland Center
10:18PM 42.2647 -78.6728 90° East 465 535 25,200 -1,560 Descending Cleveland Center
10:19PM 42.2625 -78.4967 91° East 472 543 23,700 -1,140 Descending Cleveland Center
10:20PM 42.2608 -78.3239 91° East 466 536 23,000 -360 Descending Cleveland Center
10:21PM 42.2592 -78.1519 91° East 463 533 23,000  Level Cleveland Center
10:22PM 42.2561 -77.9792 91° East 464 534 23,000  Level Cleveland Center
10:24PM 42.2539 -77.8067 91° East 466 536 23,000 -120 Level Cleveland Center
10:25PM 42.2500 -77.6000 91° East 466 536 22,800 -1,380 Descending Cleveland Center
10:26PM 42.2472 -77.4289 91° East 463 533 20,300 -2,400 Descending Cleveland Center
10:27PM 42.2436 -77.2658 92° East 446 513 18,000 -2,160 Descending Cleveland Center
10:28PM 42.2397 -77.1069 92° East 430 495 15,900 -2,280 Descending Cleveland Center
10:28PM 42.2356 -76.9831 93° East 428 493 14,100 -2,340 Descending New York Center
10:29PM 42.2331 -76.8342 91° East 405 466 11,900 -1,980 Descending New York Center
10:30PM 42.2286 -76.7133 93° East 389 448 10,100 -1,140 Descending New York Center
10:31PM 42.2261 -76.5956 92° East 350 403 9,700 -600 Descending New York Center
10:32PM 42.2228 -76.4917 92° East 305 351 9,000 -480 Descending New York Center
10:33PM 42.2192 -76.3961 93° East 271 312 8,800 -1,200 Descending New York Center
10:34PM 42.2150 -76.3033 93° East 253 291 6,700 -2,040 Descending New York Center
10:35PM 42.2133 -76.2025 91° East 253 291 4,700 -1,380 Descending New York Center
10:36PM 42.1814 -76.1297 121° Southeast 235 270 4,000 -360 Descending New York Center
10:37PM 42.1294 -76.0808 145° Southeast 217 250 4,000 -180 Level New York Center
10:38PM 42.0967 -76.0222 127° Southeast 204 235 3,700 -480 Descending New York Center
10:39PM 42.1119 -75.9564 73° East 169 194 3,100 -480 Descending New York Center
10:40PM 42.1506 -75.9344 23° Northeast 134 154 2,800 -600 Descending New York Center
10:41PM 42.1828 -75.9564 333° Northwest 102 117 2,000 -600 Descending New York Center
10:42PM 42.2092 -75.9725 336° Northwest 102 117 1,700 -300 Descending New York Center